This is the latest recevied weather packets stored in our database for station/object YF9UAG-15. If no packets are shown the sender has not sent any weather packets the latest 10 day(s).
| Time | Temp. | Humidity | Pressure | Rain* | Wind** | Luminosity | Snow |
|---|---|---|---|---|---|---|---|
| 1777680487 | 33.33° C | 84% | 1008.2 hPa | - | - | - | - |
| 1777680366 | 33.33° C | 82% | 1008.2 hPa | - | - | - | - |
| 1777680245 | 33.33° C | 81% | 1008.2 hPa | - | - | - | - |
| 1777680124 | 32.78° C | 81% | 1008.2 hPa | - | - | - | - |
| 1777680003 | 32.22° C | 84% | 1008.2 hPa | - | - | - | - |
| 1777679882 | 33.33° C | 77% | 1008.2 hPa | - | - | - | - |
| 1777679761 | 34.44° C | 71% | 1008.2 hPa | - | - | - | - |
| 1777679640 | 35.56° C | 67% | 1008.1 hPa | - | - | - | - |
| 1777679519 | 36.67° C | 64% | 1008.2 hPa | - | - | - | - |
| 1777679398 | 36.11° C | 66% | 1008.1 hPa | - | - | - | - |
| 1777679277 | 37.22° C | 64% | 1008.1 hPa | - | - | - | - |
| 1777679156 | 36.67° C | 67% | 1008 hPa | - | - | - | - |
| 1777679035 | 37.22° C | 66% | 1008 hPa | - | - | - | - |
| 1777678914 | 37.22° C | 67% | 1008.1 hPa | - | - | - | - |
| 1777678793 | 36.67° C | 69% | 1008.1 hPa | - | - | - | - |
| 1777678672 | 36.11° C | 71% | 1008.1 hPa | - | - | - | - |
| 1777678551 | 36.11° C | 74% | 1008.2 hPa | - | - | - | - |
| 1777678430 | 35.56° C | 78% | 1008.3 hPa | - | - | - | - |
| 1777678309 | 33.89° C | 85% | 1008.3 hPa | - | - | - | - |
| 1777678189 | 31.67° C | 95% | 1008.3 hPa | - | - | - | - |
| 1777678068 | 31.11° C | 98% | 1008.3 hPa | - | - | - | - |
| 1777677947 | 30.56° C | 99% | 1008.4 hPa | - | - | - | - |
| 1777677826 | 30.56° C | 99% | 1008.3 hPa | - | - | - | - |
| 1777677705 | 30.56° C | 99% | 1008.3 hPa | - | - | - | - |
| 1777677584 | 30.56° C | 99% | 1008.2 hPa | - | - | - | - |
* Rain since midnight (hover to see other rain measurements)
** Current wind speed in m/s (hover to see current wind gust speed)